sensor_id;sensor_type;location;lat;lon;timestamp;temperature;humidity
46364;DHT22;32071;49.036;9.344;2024-01-10T00:01:18;-3.60;98.30
46364;DHT22;32071;49.036;9.344;2024-01-10T00:03:44;-3.60;98.40
46364;DHT22;32071;49.036;9.344;2024-01-10T00:06:10;-3.60;98.20
46364;DHT22;32071;49.036;9.344;2024-01-10T00:08:36;-3.50;98.30
46364;DHT22;32071;49.036;9.344;2024-01-10T00:11:02;-3.50;98.30
46364;DHT22;32071;49.036;9.344;2024-01-10T00:13:29;-3.50;98.10
46364;DHT22;32071;49.036;9.344;2024-01-10T00:15:54;-3.40;98.50
46364;DHT22;32071;49.036;9.344;2024-01-10T00:18:21;-3.40;98.20
46364;DHT22;32071;49.036;9.344;2024-01-10T00:20:46;-3.40;98.40
46364;DHT22;32071;49.036;9.344;2024-01-10T00:23:12;-3.40;98.50
46364;DHT22;32071;49.036;9.344;2024-01-10T00:25:38;-3.40;98.60
46364;DHT22;32071;49.036;9.344;2024-01-10T00:28:04;-3.40;98.20
46364;DHT22;32071;49.036;9.344;2024-01-10T00:30:30;-3.30;98.60
46364;DHT22;32071;49.036;9.344;2024-01-10T00:32:56;-3.40;98.20
46364;DHT22;32071;49.036;9.344;2024-01-10T00:35:21;-3.40;98.40
46364;DHT22;32071;49.036;9.344;2024-01-10T00:37:47;-3.30;98.30
46364;DHT22;32071;49.036;9.344;2024-01-10T00:40:12;-3.30;98.50
46364;DHT22;32071;49.036;9.344;2024-01-10T00:42:38;-3.30;98.40
46364;DHT22;32071;49.036;9.344;2024-01-10T00:45:04;-3.30;98.40
46364;DHT22;32071;49.036;9.344;2024-01-10T00:47:30;-3.30;98.10
46364;DHT22;32071;49.036;9.344;2024-01-10T00:49:55;-3.20;98.60
46364;DHT22;32071;49.036;9.344;2024-01-10T00:52:21;-3.20;98.70
46364;DHT22;32071;49.036;9.344;2024-01-10T00:54:46;-3.20;98.80
46364;DHT22;32071;49.036;9.344;2024-01-10T00:57:12;-3.20;98.90
46364;DHT22;32071;49.036;9.344;2024-01-10T00:59:37;-3.20;98.50
46364;DHT22;32071;49.036;9.344;2024-01-10T01:02:03;-3.20;98.60
46364;DHT22;32071;49.036;9.344;2024-01-10T01:04:28;-3.20;98.30
46364;DHT22;32071;49.036;9.344;2024-01-10T01:06:54;-3.20;98.20
46364;DHT22;32071;49.036;9.344;2024-01-10T01:09:20;-3.20;98.20
46364;DHT22;32071;49.036;9.344;2024-01-10T01:11:45;-3.20;98.40
46364;DHT22;32071;49.036;9.344;2024-01-10T01:14:11;-3.20;98.10
46364;DHT22;32071;49.036;9.344;2024-01-10T01:16:36;-3.20;98.30
46364;DHT22;32071;49.036;9.344;2024-01-10T01:19:02;-3.10;98.70
46364;DHT22;32071;49.036;9.344;2024-01-10T01:21:27;-3.10;98.30
46364;DHT22;32071;49.036;9.344;2024-01-10T01:23:54;-3.10;98.60
46364;DHT22;32071;49.036;9.344;2024-01-10T01:26:19;-3.10;98.70
46364;DHT22;32071;49.036;9.344;2024-01-10T01:28:45;-3.10;99.00
46364;DHT22;32071;49.036;9.344;2024-01-10T01:31:10;-3.10;99.00
46364;DHT22;32071;49.036;9.344;2024-01-10T01:33:36;-3.10;99.00
46364;DHT22;32071;49.036;9.344;2024-01-10T01:36:02;-3.10;98.70
46364;DHT22;32071;49.036;9.344;2024-01-10T01:38:27;-3.10;98.70
46364;DHT22;32071;49.036;9.344;2024-01-10T01:40:53;-3.10;99.00
46364;DHT22;32071;49.036;9.344;2024-01-10T01:43:25;-3.10;98.80
46364;DHT22;32071;49.036;9.344;2024-01-10T01:45:55;-3.10;98.90
46364;DHT22;32071;49.036;9.344;2024-01-10T01:48:22;-3.10;98.50
46364;DHT22;32071;49.036;9.344;2024-01-10T01:50:50;-3.10;98.70
46364;DHT22;32071;49.036;9.344;2024-01-10T01:53:16;-3.10;98.60
46364;DHT22;32071;49.036;9.344;2024-01-10T01:55:44;-3.10;99.00
46364;DHT22;32071;49.036;9.344;2024-01-10T01:58:10;-3.20;98.70
46364;DHT22;32071;49.036;9.344;2024-01-10T02:00:36;-3.20;99.00
46364;DHT22;32071;49.036;9.344;2024-01-10T02:03:02;-3.20;98.80
46364;DHT22;32071;49.036;9.344;2024-01-10T02:05:28;-3.20;99.20
46364;DHT22;32071;49.036;9.344;2024-01-10T02:07:54;-3.20;98.90
46364;DHT22;32071;49.036;9.344;2024-01-10T02:10:20;-3.20;99.10
46364;DHT22;32071;49.036;9.344;2024-01-10T02:12:46;-3.20;99.20
46364;DHT22;32071;49.036;9.344;2024-01-10T02:15:13;-3.20;99.00
46364;DHT22;32071;49.036;9.344;2024-01-10T02:17:39;-3.20;99.20
46364;DHT22;32071;49.036;9.344;2024-01-10T02:20:23;-3.10;98.80
46364;DHT22;32071;49.036;9.344;2024-01-10T02:22:48;-3.10;98.60
46364;DHT22;32071;49.036;9.344;2024-01-10T02:25:16;-3.10;99.20
46364;DHT22;32071;49.036;9.344;2024-01-10T02:27:41;-3.10;99.10
46364;DHT22;32071;49.036;9.344;2024-01-10T02:30:07;-3.10;98.80
46364;DHT22;32071;49.036;9.344;2024-01-10T02:32:34;-3.00;98.80
46364;DHT22;32071;49.036;9.344;2024-01-10T02:35:00;-3.00;98.90
46364;DHT22;32071;49.036;9.344;2024-01-10T02:37:26;-3.00;98.60
46364;DHT22;32071;49.036;9.344;2024-01-10T02:39:51;-3.00;98.90
46364;DHT22;32071;49.036;9.344;2024-01-10T02:42:17;-2.90;98.90
46364;DHT22;32071;49.036;9.344;2024-01-10T02:44:43;-3.00;98.60
46364;DHT22;32071;49.036;9.344;2024-01-10T02:47:09;-2.90;98.90
46364;DHT22;32071;49.036;9.344;2024-01-10T02:49:35;-2.90;98.70
46364;DHT22;32071;49.036;9.344;2024-01-10T02:52:00;-2.90;98.70
46364;DHT22;32071;49.036;9.344;2024-01-10T02:54:26;-2.90;98.50
46364;DHT22;32071;49.036;9.344;2024-01-10T02:56:52;-2.90;98.50
46364;DHT22;32071;49.036;9.344;2024-01-10T02:59:17;-2.90;98.70
46364;DHT22;32071;49.036;9.344;2024-01-10T03:01:43;-2.90;98.60
46364;DHT22;32071;49.036;9.344;2024-01-10T03:04:09;-3.00;99.10
46364;DHT22;32071;49.036;9.344;2024-01-10T03:06:35;-3.00;99.10
46364;DHT22;32071;49.036;9.344;2024-01-10T03:09:01;-3.00;98.90
46364;DHT22;32071;49.036;9.344;2024-01-10T03:11:26;-3.00;99.20
46364;DHT22;32071;49.036;9.344;2024-01-10T03:14:01;-3.10;98.60
46364;DHT22;32071;49.036;9.344;2024-01-10T03:16:27;-3.10;99.20
46364;DHT22;32071;49.036;9.344;2024-01-10T03:18:53;-3.10;99.30
46364;DHT22;32071;49.036;9.344;2024-01-10T03:21:18;-3.20;99.40
46364;DHT22;32071;49.036;9.344;2024-01-10T03:24:00;-3.20;99.80
46364;DHT22;32071;49.036;9.344;2024-01-10T03:26:27;-3.20;99.30
46364;DHT22;32071;49.036;9.344;2024-01-10T03:28:53;-3.30;99.20
46364;DHT22;32071;49.036;9.344;2024-01-10T03:31:19;-3.30;99.20
46364;DHT22;32071;49.036;9.344;2024-01-10T03:33:44;-3.30;99.50
46364;DHT22;32071;49.036;9.344;2024-01-10T03:36:16;-3.30;99.70
46364;DHT22;32071;49.036;9.344;2024-01-10T03:38:42;-3.30;99.40
46364;DHT22;32071;49.036;9.344;2024-01-10T03:41:16;-3.30;99.60
46364;DHT22;32071;49.036;9.344;2024-01-10T03:43:42;-3.30;99.80
46364;DHT22;32071;49.036;9.344;2024-01-10T03:46:08;-3.30;99.80
46364;DHT22;32071;49.036;9.344;2024-01-10T03:48:34;-3.40;99.60
46364;DHT22;32071;49.036;9.344;2024-01-10T03:50:59;-3.40;99.80
46364;DHT22;32071;49.036;9.344;2024-01-10T03:53:25;-3.50;99.60
46364;DHT22;32071;49.036;9.344;2024-01-10T03:55:51;-3.50;99.70
46364;DHT22;32071;49.036;9.344;2024-01-10T03:58:16;-3.60;99.30
46364;DHT22;32071;49.036;9.344;2024-01-10T04:00:42;-3.60;99.60
46364;DHT22;32071;49.036;9.344;2024-01-10T04:03:07;-3.60;99.70
46364;DHT22;32071;49.036;9.344;2024-01-10T04:05:33;-3.60;99.80
46364;DHT22;32071;49.036;9.344;2024-01-10T04:07:58;-3.60;99.90
46364;DHT22;32071;49.036;9.344;2024-01-10T04:10:24;-3.60;99.60
46364;DHT22;32071;49.036;9.344;2024-01-10T04:12:49;-3.60;99.90
46364;DHT22;32071;49.036;9.344;2024-01-10T04:15:15;-3.60;99.80
46364;DHT22;32071;49.036;9.344;2024-01-10T04:17:42;-3.70;99.70
46364;DHT22;32071;49.036;9.344;2024-01-10T04:20:09;-3.70;99.90
46364;DHT22;32071;49.036;9.344;2024-01-10T04:22:35;-3.70;99.90
46364;DHT22;32071;49.036;9.344;2024-01-10T04:25:02;-3.70;99.90
46364;DHT22;32071;49.036;9.344;2024-01-10T04:27:28;-3.70;99.90
46364;DHT22;32071;49.036;9.344;2024-01-10T04:29:53;-3.70;99.90
46364;DHT22;32071;49.036;9.344;2024-01-10T04:32:19;-3.70;99.90
46364;DHT22;32071;49.036;9.344;2024-01-10T04:34:45;-3.80;99.90
46364;DHT22;32071;49.036;9.344;2024-01-10T04:37:11;-3.70;99.90
46364;DHT22;32071;49.036;9.344;2024-01-10T04:39:37;-3.70;99.90
46364;DHT22;32071;49.036;9.344;2024-01-10T04:42:08;-3.70;99.90
46364;DHT22;32071;49.036;9.344;2024-01-10T04:44:35;-3.70;99.90
46364;DHT22;32071;49.036;9.344;2024-01-10T04:47:01;-3.60;99.90
46364;DHT22;32071;49.036;9.344;2024-01-10T04:49:26;-3.60;99.90
46364;DHT22;32071;49.036;9.344;2024-01-10T04:51:52;-3.50;99.90
46364;DHT22;32071;49.036;9.344;2024-01-10T04:54:18;-3.50;99.90
46364;DHT22;32071;49.036;9.344;2024-01-10T04:56:43;-3.50;99.90
46364;DHT22;32071;49.036;9.344;2024-01-10T04:59:09;-3.50;99.90
46364;DHT22;32071;49.036;9.344;2024-01-10T05:01:34;-3.40;99.90
46364;DHT22;32071;49.036;9.344;2024-01-10T05:04:02;-3.40;99.90
46364;DHT22;32071;49.036;9.344;2024-01-10T05:06:28;-3.30;99.90
46364;DHT22;32071;49.036;9.344;2024-01-10T05:08:53;-3.30;99.90
46364;DHT22;32071;49.036;9.344;2024-01-10T05:11:23;-3.30;99.90
46364;DHT22;32071;49.036;9.344;2024-01-10T05:13:50;-3.20;99.90
46364;DHT22;32071;49.036;9.344;2024-01-10T05:16:15;-3.20;99.90
46364;DHT22;32071;49.036;9.344;2024-01-10T05:18:41;-3.20;99.90
46364;DHT22;32071;49.036;9.344;2024-01-10T05:21:06;-3.20;99.90
46364;DHT22;32071;49.036;9.344;2024-01-10T05:23:32;-3.20;99.90
46364;DHT22;32071;49.036;9.344;2024-01-10T05:25:58;-3.10;99.90
46364;DHT22;32071;49.036;9.344;2024-01-10T05:28:24;-3.10;99.90
46364;DHT22;32071;49.036;9.344;2024-01-10T05:30:49;-3.10;99.90
46364;DHT22;32071;49.036;9.344;2024-01-10T05:33:15;-3.10;99.90
46364;DHT22;32071;49.036;9.344;2024-01-10T05:35:41;-3.10;99.90
46364;DHT22;32071;49.036;9.344;2024-01-10T05:38:07;-3.10;99.90
46364;DHT22;32071;49.036;9.344;2024-01-10T05:40:32;-3.10;99.90
46364;DHT22;32071;49.036;9.344;2024-01-10T05:42:58;-3.10;99.90
46364;DHT22;32071;49.036;9.344;2024-01-10T05:45:27;-3.10;99.90
46364;DHT22;32071;49.036;9.344;2024-01-10T05:47:53;-3.00;99.90
46364;DHT22;32071;49.036;9.344;2024-01-10T05:50:19;-3.00;99.90
46364;DHT22;32071;49.036;9.344;2024-01-10T05:52:45;-3.00;99.90
46364;DHT22;32071;49.036;9.344;2024-01-10T05:55:11;-2.90;99.90
46364;DHT22;32071;49.036;9.344;2024-01-10T05:57:37;-2.90;99.90
46364;DHT22;32071;49.036;9.344;2024-01-10T06:00:03;-2.90;99.90
46364;DHT22;32071;49.036;9.344;2024-01-10T06:02:30;-2.90;99.90
46364;DHT22;32071;49.036;9.344;2024-01-10T06:04:55;-2.90;99.90
46364;DHT22;32071;49.036;9.344;2024-01-10T06:07:21;-2.90;99.90
46364;DHT22;32071;49.036;9.344;2024-01-10T06:09:46;-2.90;99.90
46364;DHT22;32071;49.036;9.344;2024-01-10T06:12:13;-2.90;99.90
46364;DHT22;32071;49.036;9.344;2024-01-10T06:14:39;-2.90;99.90
46364;DHT22;32071;49.036;9.344;2024-01-10T06:17:05;-2.80;99.90
46364;DHT22;32071;49.036;9.344;2024-01-10T06:19:31;-2.80;99.90
46364;DHT22;32071;49.036;9.344;2024-01-10T06:21:57;-2.80;99.90
46364;DHT22;32071;49.036;9.344;2024-01-10T06:24:23;-2.80;99.90
46364;DHT22;32071;49.036;9.344;2024-01-10T06:26:48;-2.80;99.90
46364;DHT22;32071;49.036;9.344;2024-01-10T06:29:15;-2.80;99.90
46364;DHT22;32071;49.036;9.344;2024-01-10T06:31:41;-2.80;99.90
46364;DHT22;32071;49.036;9.344;2024-01-10T06:34:06;-2.80;99.90
46364;DHT22;32071;49.036;9.344;2024-01-10T06:36:32;-2.80;99.90
46364;DHT22;32071;49.036;9.344;2024-01-10T06:38:57;-2.80;99.90
46364;DHT22;32071;49.036;9.344;2024-01-10T06:41:23;-2.80;99.90
46364;DHT22;32071;49.036;9.344;2024-01-10T06:43:50;-2.80;99.90
46364;DHT22;32071;49.036;9.344;2024-01-10T06:46:16;-2.70;99.90
46364;DHT22;32071;49.036;9.344;2024-01-10T06:48:41;-2.70;99.90
46364;DHT22;32071;49.036;9.344;2024-01-10T06:51:12;-2.70;99.90
46364;DHT22;32071;49.036;9.344;2024-01-10T06:53:38;-2.70;99.90
46364;DHT22;32071;49.036;9.344;2024-01-10T06:56:04;-2.70;99.90
46364;DHT22;32071;49.036;9.344;2024-01-10T06:58:29;-2.70;99.90
46364;DHT22;32071;49.036;9.344;2024-01-10T07:00:55;-2.70;99.90
46364;DHT22;32071;49.036;9.344;2024-01-10T07:03:20;-2.70;99.90
46364;DHT22;32071;49.036;9.344;2024-01-10T07:05:46;-2.70;99.90
46364;DHT22;32071;49.036;9.344;2024-01-10T07:08:11;-2.70;99.90
46364;DHT22;32071;49.036;9.344;2024-01-10T07:10:37;-2.60;99.90
46364;DHT22;32071;49.036;9.344;2024-01-10T07:13:04;-2.60;99.90
46364;DHT22;32071;49.036;9.344;2024-01-10T07:15:30;-2.60;99.90
46364;DHT22;32071;49.036;9.344;2024-01-10T07:17:55;-2.70;99.90
46364;DHT22;32071;49.036;9.344;2024-01-10T07:20:21;-2.70;99.90
46364;DHT22;32071;49.036;9.344;2024-01-10T07:22:49;-2.60;99.90
46364;DHT22;32071;49.036;9.344;2024-01-10T07:25:15;-2.60;99.90
46364;DHT22;32071;49.036;9.344;2024-01-10T07:27:41;-2.60;99.90
46364;DHT22;32071;49.036;9.344;2024-01-10T07:30:07;-2.60;99.90
46364;DHT22;32071;49.036;9.344;2024-01-10T07:32:39;-2.60;99.90
46364;DHT22;32071;49.036;9.344;2024-01-10T07:35:05;-2.60;99.90
46364;DHT22;32071;49.036;9.344;2024-01-10T07:37:30;-2.50;99.90
46364;DHT22;32071;49.036;9.344;2024-01-10T07:39:57;-2.50;99.90
46364;DHT22;32071;49.036;9.344;2024-01-10T07:42:23;-2.50;99.90
46364;DHT22;32071;49.036;9.344;2024-01-10T07:44:49;-2.40;99.90
46364;DHT22;32071;49.036;9.344;2024-01-10T07:47:14;-2.40;99.90
46364;DHT22;32071;49.036;9.344;2024-01-10T07:49:40;-2.30;99.90
46364;DHT22;32071;49.036;9.344;2024-01-10T07:52:05;-2.30;99.90
46364;DHT22;32071;49.036;9.344;2024-01-10T07:54:31;-2.30;99.90
46364;DHT22;32071;49.036;9.344;2024-01-10T07:56:58;-2.30;99.90
46364;DHT22;32071;49.036;9.344;2024-01-10T07:59:23;-2.30;99.90
46364;DHT22;32071;49.036;9.344;2024-01-10T08:01:56;-2.30;99.90
46364;DHT22;32071;49.036;9.344;2024-01-10T08:04:25;-2.20;99.90
46364;DHT22;32071;49.036;9.344;2024-01-10T08:06:51;-2.10;99.90
46364;DHT22;32071;49.036;9.344;2024-01-10T08:09:17;-2.10;99.90
46364;DHT22;32071;49.036;9.344;2024-01-10T08:11:44;-2.00;99.90
46364;DHT22;32071;49.036;9.344;2024-01-10T08:14:10;-2.00;99.90
46364;DHT22;32071;49.036;9.344;2024-01-10T08:16:36;-2.00;99.90
46364;DHT22;32071;49.036;9.344;2024-01-10T08:19:01;-2.00;99.90
46364;DHT22;32071;49.036;9.344;2024-01-10T08:21:27;-2.00;99.90
46364;DHT22;32071;49.036;9.344;2024-01-10T08:23:52;-2.00;99.90
46364;DHT22;32071;49.036;9.344;2024-01-10T08:26:18;-1.90;99.90
46364;DHT22;32071;49.036;9.344;2024-01-10T08:28:43;-1.90;99.90
46364;DHT22;32071;49.036;9.344;2024-01-10T08:31:09;-1.90;99.90
46364;DHT22;32071;49.036;9.344;2024-01-10T08:33:35;-1.80;99.90
46364;DHT22;32071;49.036;9.344;2024-01-10T08:36:00;-1.80;99.90
46364;DHT22;32071;49.036;9.344;2024-01-10T08:38:26;-1.90;99.90
46364;DHT22;32071;49.036;9.344;2024-01-10T08:40:51;-1.90;99.90
46364;DHT22;32071;49.036;9.344;2024-01-10T08:43:17;-1.90;99.90
46364;DHT22;32071;49.036;9.344;2024-01-10T08:45:44;-1.90;99.90
46364;DHT22;32071;49.036;9.344;2024-01-10T08:48:09;-1.90;99.90
46364;DHT22;32071;49.036;9.344;2024-01-10T08:50:37;-1.80;99.90
46364;DHT22;32071;49.036;9.344;2024-01-10T08:53:03;-1.80;99.90
46364;DHT22;32071;49.036;9.344;2024-01-10T08:55:31;-1.70;99.90
46364;DHT22;32071;49.036;9.344;2024-01-10T08:57:56;-1.70;99.90
46364;DHT22;32071;49.036;9.344;2024-01-10T09:00:22;-1.60;99.90
46364;DHT22;32071;49.036;9.344;2024-01-10T09:02:50;-1.50;99.90
46364;DHT22;32071;49.036;9.344;2024-01-10T09:05:16;-1.40;99.90
46364;DHT22;32071;49.036;9.344;2024-01-10T09:07:41;-1.30;99.90
46364;DHT22;32071;49.036;9.344;2024-01-10T09:10:07;-1.20;99.90
46364;DHT22;32071;49.036;9.344;2024-01-10T09:12:34;-1.20;99.90
46364;DHT22;32071;49.036;9.344;2024-01-10T09:15:00;-1.10;99.90
46364;DHT22;32071;49.036;9.344;2024-01-10T09:17:26;-1.00;99.90
46364;DHT22;32071;49.036;9.344;2024-01-10T09:19:53;-0.90;99.70
46364;DHT22;32071;49.036;9.344;2024-01-10T09:22:19;-0.90;99.90
46364;DHT22;32071;49.036;9.344;2024-01-10T09:24:44;-0.90;99.80
46364;DHT22;32071;49.036;9.344;2024-01-10T09:27:10;-0.80;99.30
46364;DHT22;32071;49.036;9.344;2024-01-10T09:29:36;-0.80;99.60
46364;DHT22;32071;49.036;9.344;2024-01-10T09:32:02;-0.80;99.60
46364;DHT22;32071;49.036;9.344;2024-01-10T09:34:28;-0.80;99.50
46364;DHT22;32071;49.036;9.344;2024-01-10T09:36:53;-0.90;99.40
46364;DHT22;32071;49.036;9.344;2024-01-10T09:39:19;-0.90;99.40
46364;DHT22;32071;49.036;9.344;2024-01-10T09:41:48;-0.90;99.50
46364;DHT22;32071;49.036;9.344;2024-01-10T09:44:16;-0.90;99.80
46364;DHT22;32071;49.036;9.344;2024-01-10T09:46:47;-1.00;99.70
46364;DHT22;32071;49.036;9.344;2024-01-10T09:49:13;-1.00;99.70
46364;DHT22;32071;49.036;9.344;2024-01-10T09:51:39;-1.00;99.90
46364;DHT22;32071;49.036;9.344;2024-01-10T09:54:05;-1.00;99.90
46364;DHT22;32071;49.036;9.344;2024-01-10T09:56:32;-1.00;99.70
46364;DHT22;32071;49.036;9.344;2024-01-10T09:58:58;-1.00;99.60
46364;DHT22;32071;49.036;9.344;2024-01-10T10:01:26;-1.00;99.70
46364;DHT22;32071;49.036;9.344;2024-01-10T10:03:53;-1.00;99.80
46364;DHT22;32071;49.036;9.344;2024-01-10T10:06:21;-0.90;99.70
46364;DHT22;32071;49.036;9.344;2024-01-10T10:08:48;-1.00;99.60
46364;DHT22;32071;49.036;9.344;2024-01-10T10:11:13;-1.00;99.50
46364;DHT22;32071;49.036;9.344;2024-01-10T10:13:42;-1.00;99.40
46364;DHT22;32071;49.036;9.344;2024-01-10T10:16:08;-1.00;99.50
46364;DHT22;32071;49.036;9.344;2024-01-10T10:18:35;-0.90;99.70
46364;DHT22;32071;49.036;9.344;2024-01-10T10:21:10;-0.90;99.80
46364;DHT22;32071;49.036;9.344;2024-01-10T10:23:37;-0.90;99.90
46364;DHT22;32071;49.036;9.344;2024-01-10T10:26:15;-0.90;99.40
46364;DHT22;32071;49.036;9.344;2024-01-10T10:28:50;-0.90;99.70
46364;DHT22;32071;49.036;9.344;2024-01-10T10:31:19;-0.90;99.50
46364;DHT22;32071;49.036;9.344;2024-01-10T10:33:46;-0.80;99.70
46364;DHT22;32071;49.036;9.344;2024-01-10T10:36:14;-0.70;99.40
46364;DHT22;32071;49.036;9.344;2024-01-10T10:38:39;-0.70;99.70
46364;DHT22;32071;49.036;9.344;2024-01-10T10:41:06;-0.80;99.40
46364;DHT22;32071;49.036;9.344;2024-01-10T10:43:36;-0.80;99.70
46364;DHT22;32071;49.036;9.344;2024-01-10T10:46:04;-0.70;99.90
46364;DHT22;32071;49.036;9.344;2024-01-10T10:48:34;-0.70;99.90
46364;DHT22;32071;49.036;9.344;2024-01-10T10:51:09;-0.60;99.90
46364;DHT22;32071;49.036;9.344;2024-01-10T10:53:36;-0.50;99.90
46364;DHT22;32071;49.036;9.344;2024-01-10T10:56:06;-0.50;99.70
46364;DHT22;32071;49.036;9.344;2024-01-10T10:58:35;-0.40;99.40
46364;DHT22;32071;49.036;9.344;2024-01-10T11:01:04;-0.40;99.70
46364;DHT22;32071;49.036;9.344;2024-01-10T11:03:31;-0.30;99.30
46364;DHT22;32071;49.036;9.344;2024-01-10T11:05:59;-0.20;99.40
46364;DHT22;32071;49.036;9.344;2024-01-10T11:08:26;-0.20;99.30
46364;DHT22;32071;49.036;9.344;2024-01-10T11:10:53;-0.20;99.10
46364;DHT22;32071;49.036;9.344;2024-01-10T11:24:52;0.30;98.80
46364;DHT22;32071;49.036;9.344;2024-01-10T11:27:18;0.40;98.90
46364;DHT22;32071;49.036;9.344;2024-01-10T11:29:46;0.40;98.70
46364;DHT22;32071;49.036;9.344;2024-01-10T11:32:16;0.50;98.70
46364;DHT22;32071;49.036;9.344;2024-01-10T11:35:03;0.60;98.50
46364;DHT22;32071;49.036;9.344;2024-01-10T11:37:39;0.70;98.60
46364;DHT22;32071;49.036;9.344;2024-01-10T11:40:08;0.80;98.30
46364;DHT22;32071;49.036;9.344;2024-01-10T11:42:43;0.80;98.50
46364;DHT22;32071;49.036;9.344;2024-01-10T11:45:09;0.80;97.80
46364;DHT22;32071;49.036;9.344;2024-01-10T11:47:45;0.70;97.80
46364;DHT22;32071;49.036;9.344;2024-01-10T11:50:18;0.80;98.00
46364;DHT22;32071;49.036;9.344;2024-01-10T11:52:46;0.70;97.70
46364;DHT22;32071;49.036;9.344;2024-01-10T11:55:46;0.80;98.20
46364;DHT22;32071;49.036;9.344;2024-01-10T11:58:11;0.80;98.00
46364;DHT22;32071;49.036;9.344;2024-01-10T12:00:37;0.80;98.20
46364;DHT22;32071;49.036;9.344;2024-01-10T12:03:04;0.80;98.10
46364;DHT22;32071;49.036;9.344;2024-01-10T12:05:29;0.90;98.50
46364;DHT22;32071;49.036;9.344;2024-01-10T12:07:55;0.90;97.60
46364;DHT22;32071;49.036;9.344;2024-01-10T12:10:21;0.90;97.70
46364;DHT22;32071;49.036;9.344;2024-01-10T12:12:46;0.70;97.60
46364;DHT22;32071;49.036;9.344;2024-01-10T12:15:12;0.80;98.20
46364;DHT22;32071;49.036;9.344;2024-01-10T12:17:37;0.90;98.30
46364;DHT22;32071;49.036;9.344;2024-01-10T12:20:03;0.90;98.20
46364;DHT22;32071;49.036;9.344;2024-01-10T12:22:31;0.90;98.30
46364;DHT22;32071;49.036;9.344;2024-01-10T12:25:04;0.80;97.60
46364;DHT22;32071;49.036;9.344;2024-01-10T12:27:29;0.90;97.80
46364;DHT22;32071;49.036;9.344;2024-01-10T12:29:56;0.90;98.30
46364;DHT22;32071;49.036;9.344;2024-01-10T12:32:22;1.00;98.00
46364;DHT22;32071;49.036;9.344;2024-01-10T12:34:59;1.10;97.80
46364;DHT22;32071;49.036;9.344;2024-01-10T12:37:25;1.20;97.70
46364;DHT22;32071;49.036;9.344;2024-01-10T12:39:50;1.20;97.30
46364;DHT22;32071;49.036;9.344;2024-01-10T12:42:16;1.30;97.80
46364;DHT22;32071;49.036;9.344;2024-01-10T12:44:45;1.40;97.70
46364;DHT22;32071;49.036;9.344;2024-01-10T12:47:21;1.50;97.90
46364;DHT22;32071;49.036;9.344;2024-01-10T12:49:48;1.50;97.90
46364;DHT22;32071;49.036;9.344;2024-01-10T12:52:13;1.50;98.00
46364;DHT22;32071;49.036;9.344;2024-01-10T12:54:39;1.60;97.70
46364;DHT22;32071;49.036;9.344;2024-01-10T12:57:05;1.60;98.10
46364;DHT22;32071;49.036;9.344;2024-01-10T12:59:32;1.60;97.50
46364;DHT22;32071;49.036;9.344;2024-01-10T13:01:58;1.70;98.10
46364;DHT22;32071;49.036;9.344;2024-01-10T13:04:24;1.70;98.10
46364;DHT22;32071;49.036;9.344;2024-01-10T13:06:49;1.70;97.90
46364;DHT22;32071;49.036;9.344;2024-01-10T13:09:15;1.70;97.60
46364;DHT22;32071;49.036;9.344;2024-01-10T13:11:41;1.60;97.40
46364;DHT22;32071;49.036;9.344;2024-01-10T13:14:06;1.60;98.30
46364;DHT22;32071;49.036;9.344;2024-01-10T13:16:32;1.50;97.90
46364;DHT22;32071;49.036;9.344;2024-01-10T13:18:58;1.50;98.10
46364;DHT22;32071;49.036;9.344;2024-01-10T13:21:25;1.50;98.20
46364;DHT22;32071;49.036;9.344;2024-01-10T13:23:51;1.60;97.70
46364;DHT22;32071;49.036;9.344;2024-01-10T13:26:16;1.60;97.70
46364;DHT22;32071;49.036;9.344;2024-01-10T13:28:43;1.50;97.70
46364;DHT22;32071;49.036;9.344;2024-01-10T13:31:08;1.50;98.00
46364;DHT22;32071;49.036;9.344;2024-01-10T13:33:35;1.50;98.10
46364;DHT22;32071;49.036;9.344;2024-01-10T13:36:00;1.50;97.80
46364;DHT22;32071;49.036;9.344;2024-01-10T13:38:26;1.50;98.20
46364;DHT22;32071;49.036;9.344;2024-01-10T13:40:52;1.50;98.40
46364;DHT22;32071;49.036;9.344;2024-01-10T13:43:17;1.50;97.90
46364;DHT22;32071;49.036;9.344;2024-01-10T13:45:43;1.50;97.60
46364;DHT22;32071;49.036;9.344;2024-01-10T13:48:08;1.50;97.70
46364;DHT22;32071;49.036;9.344;2024-01-10T13:50:35;1.40;97.80
46364;DHT22;32071;49.036;9.344;2024-01-10T13:53:01;1.40;97.90
46364;DHT22;32071;49.036;9.344;2024-01-10T13:55:28;1.40;98.20
46364;DHT22;32071;49.036;9.344;2024-01-10T13:57:53;1.40;98.20
46364;DHT22;32071;49.036;9.344;2024-01-10T14:00:21;1.40;98.90
46364;DHT22;32071;49.036;9.344;2024-01-10T14:02:46;1.50;97.90
46364;DHT22;32071;49.036;9.344;2024-01-10T14:05:12;1.50;97.70
46364;DHT22;32071;49.036;9.344;2024-01-10T14:07:38;1.40;98.10
46364;DHT22;32071;49.036;9.344;2024-01-10T14:10:04;1.40;98.70
46364;DHT22;32071;49.036;9.344;2024-01-10T14:12:30;1.40;98.40
46364;DHT22;32071;49.036;9.344;2024-01-10T14:14:56;1.40;98.30
46364;DHT22;32071;49.036;9.344;2024-01-10T14:17:22;1.50;98.30
46364;DHT22;32071;49.036;9.344;2024-01-10T14:19:47;1.50;98.20
46364;DHT22;32071;49.036;9.344;2024-01-10T14:22:15;1.50;98.10
46364;DHT22;32071;49.036;9.344;2024-01-10T14:24:43;1.50;98.20
46364;DHT22;32071;49.036;9.344;2024-01-10T14:27:08;1.50;98.40
46364;DHT22;32071;49.036;9.344;2024-01-10T14:29:34;1.40;98.30
46364;DHT22;32071;49.036;9.344;2024-01-10T14:32:00;1.40;98.50
46364;DHT22;32071;49.036;9.344;2024-01-10T14:34:25;1.40;98.40
46364;DHT22;32071;49.036;9.344;2024-01-10T14:36:51;1.30;98.50
46364;DHT22;32071;49.036;9.344;2024-01-10T14:39:17;1.30;98.60
46364;DHT22;32071;49.036;9.344;2024-01-10T14:41:43;1.20;98.80
46364;DHT22;32071;49.036;9.344;2024-01-10T14:44:09;1.20;98.80
46364;DHT22;32071;49.036;9.344;2024-01-10T14:46:35;1.20;98.80
46364;DHT22;32071;49.036;9.344;2024-01-10T14:49:00;1.20;99.00
46364;DHT22;32071;49.036;9.344;2024-01-10T14:51:26;1.10;98.90
46364;DHT22;32071;49.036;9.344;2024-01-10T14:53:51;1.10;99.10
46364;DHT22;32071;49.036;9.344;2024-01-10T14:56:17;1.10;99.20
46364;DHT22;32071;49.036;9.344;2024-01-10T14:58:43;1.10;99.40
46364;DHT22;32071;49.036;9.344;2024-01-10T15:01:09;1.00;99.30
46364;DHT22;32071;49.036;9.344;2024-01-10T15:03:34;1.00;99.20
46364;DHT22;32071;49.036;9.344;2024-01-10T15:06:00;1.00;99.30
46364;DHT22;32071;49.036;9.344;2024-01-10T15:08:25;0.90;99.30
46364;DHT22;32071;49.036;9.344;2024-01-10T15:10:51;0.90;99.50
46364;DHT22;32071;49.036;9.344;2024-01-10T15:13:17;0.80;99.90
46364;DHT22;32071;49.036;9.344;2024-01-10T15:15:43;0.80;99.90
46364;DHT22;32071;49.036;9.344;2024-01-10T15:18:09;0.70;99.90
46364;DHT22;32071;49.036;9.344;2024-01-10T15:20:34;0.60;99.90
46364;DHT22;32071;49.036;9.344;2024-01-10T15:23:00;0.60;99.90
46364;DHT22;32071;49.036;9.344;2024-01-10T15:25:26;0.50;99.90
46364;DHT22;32071;49.036;9.344;2024-01-10T15:27:52;0.40;99.90
46364;DHT22;32071;49.036;9.344;2024-01-10T15:30:17;0.20;99.90
46364;DHT22;32071;49.036;9.344;2024-01-10T15:32:44;-0.10;99.90
46364;DHT22;32071;49.036;9.344;2024-01-10T15:35:10;-0.20;99.90
46364;DHT22;32071;49.036;9.344;2024-01-10T15:37:35;-0.40;99.90
46364;DHT22;32071;49.036;9.344;2024-01-10T15:40:01;-0.40;99.90
46364;DHT22;32071;49.036;9.344;2024-01-10T15:42:27;-0.50;99.90